Time;durP1;ratioP1;P1;durP2;ratioP2;P2;SDS_P1;SDS_P2;PMS_P1;PMS_P2;Temp;Humidity;BMP_temperature;BMP_pressure;BME280_temperature;BME280_humidity;BME280_pressure;Samples;Min_cycle;Max_cycle;Signal;HPM_P1;HPM_P2
2022/07/22 04:01:54;;;;;;;13.60;12.40;;;19.80;99.90;;;;;;5296596;23;20485;-64
2022/07/22 04:04:21;;;;;;;13.50;12.40;;;19.80;99.90;;;;;;4975546;28;20482;-64
2022/07/22 04:06:48;;;;;;;12.63;11.73;;;19.70;99.90;;;;;;4975610;28;20474;-64
2022/07/22 04:09:14;;;;;;;13.30;12.10;;;19.70;99.90;;;;;;4975392;28;20458;-64
2022/07/22 04:11:41;;;;;;;13.40;12.30;;;19.70;99.90;;;;;;4975176;28;20482;-65
2022/07/22 04:14:08;;;;;;;13.63;12.50;;;19.70;99.90;;;;;;4975639;28;20531;-65
2022/07/22 04:16:35;;;;;;;13.50;12.27;;;19.70;99.90;;;;;;4975281;28;20458;-65
2022/07/22 04:19:03;;;;;;;12.43;11.53;;;19.70;99.90;;;;;;4976508;28;20862;-65
2022/07/22 04:21:30;;;;;;;14.10;12.40;;;19.80;99.90;;;;;;4975434;28;20541;-65
2022/07/22 04:23:57;;;;;;;14.43;13.33;;;19.80;99.90;;;;;;4974998;28;20964;-65
2022/07/22 04:26:24;;;;;;;14.00;12.77;;;19.80;99.90;;;;;;4975222;28;21061;-65
2022/07/22 04:28:50;;;;;;;14.40;12.20;;;19.80;99.90;;;;;;4975283;28;20465;-65
2022/07/22 04:31:17;;;;;;;13.03;12.03;;;19.80;99.90;;;;;;4975202;28;20475;-65
2022/07/22 04:33:44;;;;;;;13.20;12.10;;;19.80;99.90;;;;;;4975303;28;20939;-65
2022/07/22 04:36:12;;;;;;;12.83;11.90;;;19.80;99.90;;;;;;4975234;28;20457;-65
2022/07/22 04:38:38;;;;;;;12.90;11.90;;;19.90;99.90;;;;;;4975243;28;20465;-65
2022/07/22 04:41:06;;;;;;;13.80;12.73;;;19.90;99.90;;;;;;4975132;28;20485;-65
2022/07/22 04:43:33;;;;;;;14.27;13.07;;;19.90;99.90;;;;;;4975243;28;20482;-65
2022/07/22 04:46:00;;;;;;;15.00;11.63;;;19.90;99.90;;;;;;4975970;28;20459;-65
2022/07/22 04:48:27;;;;;;;13.93;12.73;;;19.90;99.90;;;;;;4974937;28;20482;-65
2022/07/22 04:50:53;;;;;;;12.43;11.33;;;20.00;99.90;;;;;;4974697;28;20478;-65
2022/07/22 04:53:21;;;;;;;13.03;11.83;;;20.00;99.90;;;;;;4975176;28;20466;-65
2022/07/22 04:55:48;;;;;;;13.80;12.63;;;20.10;99.90;;;;;;4974966;28;20454;-66
2022/07/22 04:58:15;;;;;;;14.03;12.70;;;20.10;99.90;;;;;;4974928;28;20447;-66
2022/07/22 05:00:41;;;;;;;13.03;11.80;;;20.20;99.90;;;;;;4974655;28;20493;-66
2022/07/22 05:03:08;;;;;;;13.10;12.10;;;20.20;99.90;;;;;;4974929;28;20462;-67
2022/07/22 05:05:35;;;;;;;13.97;12.73;;;20.20;99.90;;;;;;4975015;28;20508;-66
2022/07/22 05:08:02;;;;;;;13.30;12.10;;;20.30;99.90;;;;;;4974660;28;20487;-67
2022/07/22 05:10:30;;;;;;;13.47;12.37;;;20.30;99.90;;;;;;4974882;28;20462;-68
2022/07/22 05:12:56;;;;;;;9.37;8.67;;;20.30;99.90;;;;;;4975498;28;20458;-68
2022/07/22 05:15:23;;;;;;;12.93;11.63;;;20.40;99.90;;;;;;4975398;28;20458;-67
2022/07/22 05:17:50;;;;;;;12.57;11.37;;;20.40;99.90;;;;;;4975425;28;20457;-67
2022/07/22 05:20:17;;;;;;;12.20;11.10;;;20.40;99.90;;;;;;4974908;28;20823;-67
2022/07/22 05:22:44;;;;;;;12.33;11.30;;;20.50;99.90;;;;;;4975354;28;20817;-67
2022/07/22 05:25:11;;;;;;;12.80;11.80;;;20.70;99.90;;;;;;4975102;28;20463;-67
2022/07/22 05:27:39;;;;;;;11.47;10.47;;;20.80;99.90;;;;;;4974876;28;20478;-66
2022/07/22 05:30:07;;;;;;;13.20;12.00;;;21.00;99.90;;;;;;4975007;28;20458;-66
2022/07/22 05:32:33;;;;;;;12.70;11.60;;;21.20;99.90;;;;;;4975050;28;20478;-65
2022/07/22 05:35:00;;;;;;;14.50;12.23;;;21.30;99.90;;;;;;4974855;28;20465;-66
2022/07/22 05:37:27;;;;;;;11.87;10.80;;;21.40;99.90;;;;;;4976013;28;20459;-67
2022/07/22 05:39:54;;;;;;;12.80;11.70;;;21.60;99.90;;;;;;4987485;28;20454;-66
2022/07/22 05:42:20;;;;;;;11.30;10.50;;;21.70;99.90;;;;;;4979537;28;20487;-66
2022/07/22 05:44:48;;;;;;;11.80;10.80;;;21.80;99.90;;;;;;4974654;28;20509;-66
2022/07/22 05:47:15;;;;;;;12.37;11.30;;;21.90;99.90;;;;;;4974453;28;20478;-66
2022/07/22 05:49:42;;;;;;;13.50;10.17;;;22.00;99.90;;;;;;4974629;28;20454;-65
2022/07/22 05:52:09;;;;;;;12.03;11.03;;;22.20;99.90;;;;;;4974372;28;20529;-65
2022/07/22 05:54:35;;;;;;;12.40;11.10;;;22.30;99.90;;;;;;4974528;28;20455;-64
2022/07/22 05:57:02;;;;;;;12.77;11.50;;;22.40;99.90;;;;;;4974586;28;20473;-67
2022/07/22 05:59:29;;;;;;;12.43;11.10;;;22.50;99.90;;;;;;4974537;28;20471;-65
2022/07/22 06:01:57;;;;;;;11.87;10.63;;;22.60;99.90;;;;;;4974257;28;20505;-66
2022/07/22 06:04:23;;;;;;;13.07;11.67;;;22.70;99.90;;;;;;4977641;28;20454;-66
2022/07/22 06:06:50;;;;;;;13.27;12.07;;;22.70;99.90;;;;;;4977369;28;20458;-65
2022/07/22 06:09:17;;;;;;;13.23;11.90;;;22.80;99.90;;;;;;4977879;28;20450;-66
2022/07/22 06:11:44;;;;;;;12.80;11.80;;;22.80;99.90;;;;;;4977418;28;20515;-66
2022/07/22 06:14:10;;;;;;;12.90;11.90;;;22.90;99.90;;;;;;4977830;28;20454;-66
2022/07/22 06:16:37;;;;;;;13.30;12.20;;;23.00;99.90;;;;;;4978074;28;20807;-66
2022/07/22 06:19:05;;;;;;;13.80;12.57;;;23.10;99.90;;;;;;4977768;28;20462;-66
2022/07/22 06:21:32;;;;;;;14.07;12.30;;;23.20;99.90;;;;;;4977601;28;20533;-65
2022/07/22 06:23:59;;;;;;;14.13;12.40;;;23.20;99.90;;;;;;4977600;28;20462;-66
2022/07/22 06:26:25;;;;;;;12.87;11.67;;;23.40;99.90;;;;;;4978562;28;20462;-66
2022/07/22 06:28:52;;;;;;;13.17;12.03;;;23.50;99.90;;;;;;4977181;28;20485;-66
2022/07/22 06:31:19;;;;;;;13.40;12.10;;;23.60;99.90;;;;;;4977514;28;20474;-65
2022/07/22 06:33:45;;;;;;;12.70;11.60;;;23.70;99.90;;;;;;4977417;28;20459;-66
2022/07/22 06:36:14;;;;;;;13.20;12.10;;;23.80;99.90;;;;;;4977428;28;20458;-65
2022/07/22 06:38:41;;;;;;;13.40;12.20;;;23.70;99.90;;;;;;4977715;28;20457;-66
2022/07/22 06:41:07;;;;;;;14.93;13.43;;;23.80;99.90;;;;;;4976966;28;20481;-66
2022/07/22 06:43:34;;;;;;;12.27;11.03;;;23.90;99.90;;;;;;4977352;28;20454;-65
2022/07/22 06:46:01;;;;;;;13.40;12.50;;;24.10;99.90;;;;;;4977544;28;20450;-65
2022/07/22 06:48:27;;;;;;;11.80;10.90;;;24.30;99.90;;;;;;4977374;28;20486;-65
2022/07/22 06:50:54;;;;;;;12.40;11.50;;;24.60;99.90;;;;;;4977925;28;20485;-65
2022/07/22 06:53:23;;;;;;;12.67;11.53;;;25.00;99.90;;;;;;4977191;28;20526;-65
2022/07/22 06:55:49;;;;;;;11.47;10.47;;;25.50;99.90;;;;;;4977246;28;20462;-65
2022/07/22 06:58:16;;;;;;;10.70;9.60;;;25.90;99.90;;;;;;4977136;28;20462;-65
2022/07/22 07:00:43;;;;;;;11.53;10.73;;;26.20;99.90;;;;;;4976944;28;20498;-64
2022/07/22 07:03:10;;;;;;;13.47;10.77;;;26.60;99.90;;;;;;4977194;28;20465;-66
2022/07/22 07:05:36;;;;;;;10.70;9.90;;;27.00;99.90;;;;;;4977804;28;20462;-65
2022/07/22 07:08:03;;;;;;;11.23;10.10;;;27.60;99.90;;;;;;4976890;28;20479;-65
2022/07/22 07:10:32;;;;;;;12.57;11.47;;;27.90;99.90;;;;;;4976821;28;20481;-65
2022/07/22 07:12:59;;;;;;;11.93;11.10;;;28.10;99.90;;;;;;4977001;28;20820;-65
2022/07/22 07:15:26;;;;;;;11.13;10.33;;;28.20;99.90;;;;;;4977166;28;20462;-65
2022/07/22 07:17:54;;;;;;;10.77;9.97;;;27.90;99.90;;;;;;4976776;28;20821;-65
2022/07/22 07:20:21;;;;;;;10.80;10.10;;;28.40;99.90;;;;;;4976708;28;20498;-65
2022/07/22 07:22:48;;;;;;;11.13;10.27;;;28.70;99.90;;;;;;4976684;28;20455;-65
2022/07/22 07:25:14;;;;;;;11.87;10.77;;;29.30;98.30;;;;;;4976356;28;20815;-65
2022/07/22 07:27:42;;;;;;;11.07;10.37;;;29.70;96.80;;;;;;4976366;28;20485;-65
2022/07/22 07:30:10;;;;;;;10.50;9.70;;;30.00;96.70;;;;;;4976523;28;20462;-65
2022/07/22 07:32:37;;;;;;;11.03;10.10;;;30.30;96.40;;;;;;4976519;28;20454;-65
2022/07/22 07:35:04;;;;;;;11.13;10.13;;;30.60;94.40;;;;;;4976856;28;20466;-65
2022/07/22 07:37:31;;;;;;;10.30;9.40;;;30.80;93.90;;;;;;4976417;28;20501;-65
2022/07/22 07:39:59;;;;;;;11.33;10.47;;;31.00;93.90;;;;;;4976508;28;20455;-65
2022/07/22 07:42:26;;;;;;;11.47;10.50;;;31.50;92.40;;;;;;4976335;28;20481;-65
2022/07/22 07:44:54;;;;;;;11.37;10.50;;;31.60;90.60;;;;;;4976370;28;20465;-65
2022/07/22 07:47:21;;;;;;;10.07;9.37;;;31.80;91.30;;;;;;4976293;28;20470;-65
2022/07/22 07:49:48;;;;;;;10.33;9.60;;;32.20;88.40;;;;;;4976320;28;20439;-65
2022/07/22 07:52:15;;;;;;;11.57;10.77;;;32.40;86.80;;;;;;4975869;28;21051;-66
2022/07/22 07:54:43;;;;;;;10.35;9.48;;;32.20;86.10;;;;;;4975007;28;20550;-67
2022/07/22 07:57:10;;;;;;;11.53;10.53;;;32.20;85.60;;;;;;4975637;28;20662;-67
2022/07/22 07:59:37;;;;;;;10.70;9.80;;;32.10;86.30;;;;;;4976100;28;20450;-67
2022/07/22 08:02:05;;;;;;;11.27;10.20;;;32.10;87.50;;;;;;4975831;28;20487;-67
2022/07/22 08:04:32;;;;;;;12.17;11.27;;;32.10;83.10;;;;;;4976256;28;20462;-67
2022/07/22 08:06:59;;;;;;;10.47;9.77;;;32.10;83.60;;;;;;4975758;28;20465;-67
2022/07/22 08:09:25;;;;;;;11.47;10.23;;;32.40;84.60;;;;;;4975594;28;20844;-68
2022/07/22 08:11:52;;;;;;;10.63;9.73;;;32.60;82.70;;;;;;4975601;28;20549;-67
2022/07/22 08:14:19;;;;;;;10.70;10.00;;;32.90;82.10;;;;;;4975847;28;20455;-67
2022/07/22 08:16:46;;;;;;;11.50;10.60;;;33.40;78.90;;;;;;4975328;28;20958;-66
2022/07/22 08:19:14;;;;;;;11.33;10.43;;;33.90;78.40;;;;;;4975640;28;20450;-66
2022/07/22 08:21:42;;;;;;;11.73;10.77;;;34.20;78.20;;;;;;4975387;28;20481;-67
2022/07/22 08:24:09;;;;;;;10.63;9.93;;;34.40;76.10;;;;;;4975686;28;20457;-66
2022/07/22 08:26:36;;;;;;;10.63;9.83;;;34.50;75.90;;;;;;4974880;28;20465;-66
2022/07/22 08:29:03;;;;;;;10.60;9.70;;;34.60;73.20;;;;;;4975113;28;20486;-66
2022/07/22 08:31:31;;;;;;;10.23;9.47;;;34.10;73.80;;;;;;4975492;28;20560;-66
2022/07/22 08:33:59;;;;;;;10.93;10.03;;;34.30;75.10;;;;;;4975630;28;20553;-67
2022/07/22 08:36:27;;;;;;;12.00;11.10;;;34.60;73.70;;;;;;4975619;28;20545;-66
2022/07/22 08:38:54;;;;;;;10.57;9.87;;;34.40;72.90;;;;;;4975150;28;20454;-66
2022/07/22 08:41:22;;;;;;;10.60;9.90;;;34.80;70.50;;;;;;4975098;28;20981;-66
2022/07/22 08:43:50;;;;;;;9.67;9.07;;;35.00;69.40;;;;;;4975359;28;20454;-67
2022/07/22 08:46:16;;;;;;;9.40;8.80;;;35.30;69.60;;;;;;4975261;28;20525;-67
2022/07/22 08:48:44;;;;;;;10.97;10.27;;;35.80;67.50;;;;;;4975026;28;20485;-66
2022/07/22 08:51:11;;;;;;;10.30;9.60;;;36.10;63.50;;;;;;4975011;28;20477;-66
2022/07/22 08:53:39;;;;;;;9.10;8.60;;;35.70;64.90;;;;;;4974980;28;20458;-66
2022/07/22 08:56:06;;;;;;;10.77;9.73;;;35.50;66.10;;;;;;4975009;28;20458;-67
2022/07/22 08:58:33;;;;;;;8.93;8.20;;;35.60;64.60;;;;;;4975134;28;20450;-66
2022/07/22 09:01:08;;;;;;;9.80;9.10;;;35.70;64.40;;;;;;4974844;28;20493;-66
2022/07/22 09:03:45;;;;;;;9.27;8.53;;;35.70;63.80;;;;;;4974720;28;20457;-67
2022/07/22 09:06:12;;;;;;;9.50;8.73;;;36.10;63.90;;;;;;4974774;28;20448;-66
2022/07/22 09:08:53;;;;;;;10.23;8.80;;;36.40;63.10;;;;;;4974462;28;20484;-67
2022/07/22 09:11:21;;;;;;;10.30;9.37;;;36.60;62.20;;;;;;4974852;28;20481;-66
2022/07/22 09:13:49;;;;;;;10.47;9.80;;;36.90;60.70;;;;;;4974905;28;20454;-66
2022/07/22 09:16:16;;;;;;;8.70;8.00;;;36.60;59.60;;;;;;4974752;28;20465;-67
2022/07/22 09:18:47;;;;;;;10.00;9.10;;;36.70;60.60;;;;;;4974639;28;20477;-67
2022/07/22 09:21:14;;;;;;;10.23;9.53;;;37.10;60.00;;;;;;4974686;28;20474;-66
2022/07/22 09:23:42;;;;;;;9.00;7.97;;;37.30;60.20;;;;;;4975082;28;20469;-66
2022/07/22 09:26:30;;;;;;;8.97;8.37;;;37.60;58.70;;;;;;4974793;28;20465;-66
2022/07/22 09:28:58;;;;;;;8.20;7.50;;;37.80;59.20;;;;;;4974626;28;20485;-66
2022/07/22 09:31:26;;;;;;;7.90;7.40;;;38.20;57.50;;;;;;4974608;28;20482;-67
2022/07/22 09:33:54;;;;;;;9.50;8.83;;;38.20;56.10;;;;;;4974892;28;20481;-67
2022/07/22 09:36:21;;;;;;;9.47;8.67;;;38.00;55.50;;;;;;4974779;28;20466;-67
2022/07/22 09:38:48;;;;;;;8.63;8.10;;;37.80;56.00;;;;;;4977287;28;20454;-67
2022/07/22 09:41:16;;;;;;;10.17;9.37;;;37.50;55.80;;;;;;4978808;28;20485;-67
2022/07/22 09:43:42;;;;;;;10.27;9.37;;;37.80;55.80;;;;;;4978630;28;20460;-67
2022/07/22 09:46:10;;;;;;;11.63;10.70;;;37.50;56.50;;;;;;4978225;28;20941;-67
2022/07/22 09:48:38;;;;;;;9.37;8.77;;;37.50;56.10;;;;;;4978205;28;20478;-66
2022/07/22 09:51:06;;;;;;;9.37;8.73;;;37.40;56.00;;;;;;4978373;28;20524;-66
2022/07/22 09:53:34;;;;;;;8.53;8.00;;;37.50;56.90;;;;;;4978373;28;20464;-66
2022/07/22 09:56:03;;;;;;;8.37;7.67;;;37.40;57.50;;;;;;4978662;28;20462;-66
2022/07/22 09:58:32;;;;;;;7.23;6.83;;;37.40;57.10;;;;;;4978430;28;20454;-67
2022/07/22 10:01:00;;;;;;;8.50;7.90;;;37.90;55.50;;;;;;4977808;28;20489;-67
2022/07/22 10:03:29;;;;;;;7.00;6.60;;;38.50;54.80;;;;;;4978163;28;20466;-66
2022/07/22 10:05:56;;;;;;;9.50;7.20;;;38.50;54.10;;;;;;4978955;28;20823;-66
2022/07/22 10:08:25;;;;;;;8.30;7.80;;;38.50;53.70;;;;;;4978853;28;20481;-65
2022/07/22 10:10:54;;;;;;;6.87;6.37;;;39.10;51.80;;;;;;4977819;28;20476;-66
2022/07/22 10:13:21;;;;;;;7.27;6.77;;;39.50;52.20;;;;;;4978072;28;20461;-65
2022/07/22 10:15:49;;;;;;;7.70;7.20;;;39.70;52.70;;;;;;4977697;28;20458;-65
2022/07/22 10:18:18;;;;;;;7.37;6.87;;;40.00;50.20;;;;;;4978120;28;20198;-65
2022/07/22 10:20:45;;;;;;;8.20;7.60;;;39.80;50.10;;;;;;4977862;28;20227;-66
2022/07/22 10:23:14;;;;;;;7.23;6.73;;;40.00;50.80;;;;;;4977912;28;20206;-66
2022/07/22 10:25:52;;;;;;;7.47;6.87;;;40.10;50.20;;;;;;4980389;28;20202;-66
2022/07/22 10:28:25;;;;;;;7.67;6.97;;;40.40;51.10;;;;;;4979355;28;20202;-65
2022/07/22 10:30:53;;;;;;;7.83;7.20;;;40.40;50.30;;;;;;4977637;28;20285;-66
2022/07/22 10:33:21;;;;;;;7.50;7.00;;;40.10;49.70;;;;;;4983889;28;20334;-66
2022/07/22 10:35:57;;;;;;;6.97;6.57;;;40.30;50.10;;;;;;4992605;28;20201;-66
2022/07/22 10:38:25;;;;;;;7.87;7.27;;;40.30;48.70;;;;;;4983189;28;20453;-66
2022/07/22 10:40:55;;;;;;;7.83;7.13;;;39.80;49.40;;;;;;4977705;28;20478;-66
2022/07/22 10:43:23;;;;;;;8.07;7.53;;;39.50;50.00;;;;;;4978449;28;20459;-65
2022/07/22 10:45:55;;;;;;;8.70;7.87;;;39.00;49.90;;;;;;4977041;28;20458;-66
2022/07/22 10:48:24;;;;;;;7.70;7.17;;;38.70;51.00;;;;;;4976728;28;20438;-66
2022/07/22 10:51:08;;;;;;;8.47;7.87;;;38.60;50.10;;;;;;4976972;28;20958;-65
2022/07/22 10:53:43;;;;;;;7.40;6.73;;;38.80;51.80;;;;;;4977241;28;20469;-65
2022/07/22 10:56:19;;;;;;;8.33;7.70;;;39.10;50.80;;;;;;4977255;28;20453;-65
2022/07/22 10:58:49;;;;;;;7.43;6.93;;;39.10;50.20;;;;;;4977188;28;20465;-65
2022/07/22 11:01:20;;;;;;;7.70;7.30;;;39.00;49.90;;;;;;4976794;28;20486;-66
2022/07/22 11:03:48;;;;;;;7.40;6.80;;;39.30;49.40;;;;;;4977002;28;20438;-67
2022/07/22 11:06:22;;;;;;;8.27;7.57;;;39.10;51.60;;;;;;4977032;28;20793;-66
2022/07/22 11:08:50;;;;;;;7.40;6.90;;;39.20;50.90;;;;;;4976531;28;20969;-67
2022/07/22 11:11:18;;;;;;;8.10;7.60;;;39.40;50.10;;;;;;4976748;28;20482;-67
2022/07/22 11:13:46;;;;;;;9.77;7.23;;;39.50;50.00;;;;;;4976722;28;20517;-67
2022/07/22 11:16:22;;;;;;;8.37;7.87;;;39.50;49.40;;;;;;4976746;28;20458;-67
2022/07/22 11:18:52;;;;;;;6.93;6.53;;;38.80;49.50;;;;;;4976823;28;20445;-67
2022/07/22 11:21:21;;;;;;;8.53;8.03;;;38.70;51.40;;;;;;4976641;28;20478;-67
2022/07/22 11:23:50;;;;;;;8.07;7.57;;;38.60;51.60;;;;;;4976821;28;20811;-67
2022/07/22 11:26:18;;;;;;;8.40;7.70;;;38.40;50.80;;;;;;4976696;28;20821;-67
2022/07/22 11:28:46;;;;;;;7.47;6.97;;;37.90;51.00;;;;;;4976521;28;20593;-67
2022/07/22 11:31:15;;;;;;;7.83;7.27;;;37.60;53.60;;;;;;4976249;28;20478;-71
2022/07/22 11:33:44;;;;;;;8.00;7.40;;;37.30;51.60;;;;;;4976551;28;20458;-68
2022/07/22 11:36:11;;;;;;;6.77;6.37;;;37.20;53.70;;;;;;4976387;28;20465;-67
2022/07/22 11:38:47;;;;;;;7.70;7.23;;;37.10;53.70;;;;;;4976247;28;20489;-67
2022/07/22 11:41:16;;;;;;;7.90;7.30;;;37.00;53.10;;;;;;4976310;28;20477;-66
2022/07/22 11:43:44;;;;;;;8.83;8.23;;;36.80;53.50;;;;;;4976042;28;20462;-68
2022/07/22 11:46:12;;;;;;;7.60;7.10;;;36.60;53.90;;;;;;4976219;28;20438;-67
2022/07/22 11:48:39;;;;;;;8.80;7.30;;;36.20;54.80;;;;;;4976078;28;20525;-67
2022/07/22 11:51:09;;;;;;;8.53;7.83;;;35.90;54.10;;;;;;4975902;28;20478;-67
2022/07/22 11:53:38;;;;;;;7.80;7.20;;;35.70;55.20;;;;;;4976153;28;20861;-67
2022/07/22 11:56:07;;;;;;;8.30;7.53;;;35.40;55.80;;;;;;4975998;28;20461;-67
2022/07/22 11:58:36;;;;;;;8.10;7.40;;;35.50;55.30;;;;;;4976689;28;20454;-66
2022/07/22 12:01:04;;;;;;;7.90;7.30;;;35.50;55.60;;;;;;4975082;28;20485;-66
2022/07/22 12:03:31;;;;;;;8.07;7.37;;;35.50;55.70;;;;;;4975786;28;20465;-66
2022/07/22 12:05:58;;;;;;;8.43;7.80;;;35.30;56.20;;;;;;4975851;28;20458;-67
2022/07/22 12:08:26;;;;;;;8.10;7.30;;;35.10;56.30;;;;;;4975859;28;20465;-68
2022/07/22 12:10:53;;;;;;;7.40;6.87;;;35.00;57.10;;;;;;4976137;28;20490;-66
2022/07/22 12:13:20;;;;;;;7.87;7.27;;;35.00;57.60;;;;;;4975627;28;20819;-68
2022/07/22 12:15:47;;;;;;;6.63;6.20;;;35.20;55.50;;;;;;4975660;28;20466;-67
2022/07/22 12:18:22;;;;;;;7.70;7.10;;;35.30;55.90;;;;;;4975808;28;20868;-67
2022/07/22 12:20:50;;;;;;;7.93;7.30;;;34.70;54.90;;;;;;4975515;28;20509;-69
2022/07/22 12:23:17;;;;;;;7.10;6.60;;;34.50;56.00;;;;;;4975565;28;20465;-68
2022/07/22 12:25:56;;;;;;;8.77;8.00;;;34.40;56.10;;;;;;4975272;28;20485;-68
2022/07/22 12:28:23;;;;;;;6.93;6.50;;;34.00;56.30;;;;;;4975235;28;20438;-67
2022/07/22 12:30:51;;;;;;;7.17;6.60;;;34.10;55.60;;;;;;4975129;28;20486;-66
2022/07/22 12:33:19;;;;;;;7.47;6.93;;;34.20;57.40;;;;;;4975449;28;20454;-67
2022/07/22 12:36:00;;;;;;;7.30;6.60;;;34.10;55.90;;;;;;4975317;28;20454;-68
2022/07/22 12:38:27;;;;;;;7.13;6.73;;;34.30;57.20;;;;;;4975255;28;20806;-68
2022/07/22 12:40:55;;;;;;;7.73;7.23;;;34.30;56.70;;;;;;4975009;28;20505;-67
2022/07/22 12:43:25;;;;;;;7.20;6.70;;;34.10;55.30;;;;;;4975244;28;20513;-67
2022/07/22 12:45:52;;;;;;;7.83;7.23;;;34.10;55.80;;;;;;4974972;28;20446;-68
2022/07/22 12:48:19;;;;;;;7.37;6.87;;;34.20;56.90;;;;;;4975237;28;20524;-68
2022/07/22 12:50:56;;;;;;;7.97;6.80;;;34.20;55.50;;;;;;4975023;28;20509;-68
2022/07/22 12:53:24;;;;;;;7.63;7.03;;;34.40;55.00;;;;;;4975119;28;20442;-68
2022/07/22 12:55:54;;;;;;;8.10;7.50;;;34.20;55.00;;;;;;4975307;28;20868;-67
2022/07/22 12:58:25;;;;;;;6.70;6.20;;;34.10;54.50;;;;;;4975669;28;20498;-68
2022/07/22 13:00:54;;;;;;;7.47;6.97;;;33.90;55.30;;;;;;4975104;28;20489;-66
2022/07/22 13:03:23;;;;;;;8.03;7.33;;;34.00;56.20;;;;;;4975154;28;20449;-68
2022/07/22 13:05:51;;;;;;;7.37;6.80;;;34.10;55.90;;;;;;4975150;28;20819;-68
2022/07/22 13:08:18;;;;;;;7.50;7.10;;;34.20;55.50;;;;;;4975152;28;20443;-67
2022/07/22 13:10:45;;;;;;;7.13;6.73;;;34.10;55.60;;;;;;4975005;28;20498;-69
2022/07/22 13:13:12;;;;;;;7.23;6.63;;;34.00;55.60;;;;;;4979177;28;20470;-67
2022/07/22 13:15:40;;;;;;;8.07;7.37;;;34.00;57.00;;;;;;4979508;28;20451;-68
2022/07/22 13:18:07;;;;;;;7.07;6.57;;;34.20;56.70;;;;;;4979095;28;20840;-68
2022/07/22 13:20:34;;;;;;;7.67;7.07;;;34.10;57.30;;;;;;4979024;28;20474;-68
2022/07/22 13:23:02;;;;;;;7.40;6.90;;;34.30;55.90;;;;;;4980808;28;20453;-68
2022/07/22 13:25:30;;;;;;;6.93;6.53;;;34.10;54.50;;;;;;4979651;28;20524;-68
2022/07/22 13:27:57;;;;;;;7.87;7.30;;;34.10;55.10;;;;;;4978751;28;20454;-68
2022/07/22 13:30:24;;;;;;;7.13;6.47;;;34.10;55.50;;;;;;4978634;28;20481;-67
2022/07/22 13:32:52;;;;;;;8.87;7.07;;;34.20;55.60;;;;;;4978594;28;20508;-68
2022/07/22 13:35:20;;;;;;;7.47;6.83;;;34.20;56.60;;;;;;4978385;28;20454;-66
2022/07/22 13:37:47;;;;;;;7.50;7.00;;;34.00;56.80;;;;;;4978472;28;20462;-67
2022/07/22 13:40:14;;;;;;;6.70;6.30;;;34.10;56.10;;;;;;4978443;28;20461;-67
2022/07/22 13:42:41;;;;;;;7.30;6.80;;;33.90;55.70;;;;;;4978363;28;20844;-67
2022/07/22 13:45:11;;;;;;;6.47;6.00;;;34.00;56.40;;;;;;4978578;28;20863;-67
2022/07/22 13:47:39;;;;;;;6.20;5.70;;;34.10;57.90;;;;;;4978821;28;20454;-67
2022/07/22 13:50:08;;;;;;;6.60;6.20;;;34.30;55.00;;;;;;4978288;28;20485;-67
2022/07/22 13:52:35;;;;;;;6.87;6.37;;;34.10;53.80;;;;;;4978562;28;20485;-67
2022/07/22 13:55:02;;;;;;;6.97;6.57;;;34.20;54.70;;;;;;4978395;28;20450;-67
2022/07/22 13:57:29;;;;;;;7.50;7.03;;;34.30;54.30;;;;;;4978480;28;20450;-67
2022/07/22 13:59:56;;;;;;;6.60;6.20;;;34.40;53.50;;;;;;4978072;28;20961;-67
2022/07/22 14:02:23;;;;;;;7.73;6.97;;;34.40;53.70;;;;;;4978038;28;20486;-67
2022/07/22 14:04:49;;;;;;;6.27;5.87;;;34.50;53.10;;;;;;4978050;28;20465;-67
2022/07/22 14:07:17;;;;;;;6.80;6.30;;;34.40;53.20;;;;;;4977874;28;20457;-67
2022/07/22 14:09:44;;;;;;;7.40;6.73;;;34.50;54.10;;;;;;4978089;28;20485;-66
2022/07/22 14:12:11;;;;;;;7.27;6.80;;;34.50;55.60;;;;;;4977672;28;20477;-67
2022/07/22 14:14:38;;;;;;;7.13;6.60;;;34.50;54.20;;;;;;4977439;28;20878;-67
2022/07/22 14:17:05;;;;;;;6.93;6.23;;;34.60;54.80;;;;;;4989022;28;20461;-67
2022/07/22 14:19:32;;;;;;;6.73;6.20;;;34.80;54.60;;;;;;4991295;28;20461;-67
2022/07/22 14:21:59;;;;;;;6.83;6.17;;;34.80;54.50;;;;;;4978183;28;20965;-67
2022/07/22 14:24:27;;;;;;;6.90;6.40;;;34.90;53.90;;;;;;4976912;28;20814;-67
2022/07/22 14:26:53;;;;;;;7.10;6.53;;;35.00;53.10;;;;;;4977546;28;20465;-66
2022/07/22 14:29:21;;;;;;;6.40;6.00;;;35.00;54.20;;;;;;4977432;28;20458;-67
2022/07/22 14:31:48;;;;;;;6.80;6.30;;;35.10;54.80;;;;;;4977498;28;20474;-66
2022/07/22 14:34:15;;;;;;;7.30;6.80;;;34.90;53.40;;;;;;4977161;28;21097;-67
2022/07/22 14:36:41;;;;;;;6.90;6.40;;;35.00;54.40;;;;;;4977576;28;20461;-67
2022/07/22 14:39:08;;;;;;;7.47;6.80;;;35.00;54.40;;;;;;4977560;28;20458;-67
2022/07/22 14:41:37;;;;;;;6.53;6.13;;;35.00;53.90;;;;;;4977800;28;20481;-66
2022/07/22 14:44:03;;;;;;;6.60;6.17;;;34.90;54.00;;;;;;4977570;28;20454;-66
2022/07/22 14:46:30;;;;;;;6.57;5.93;;;34.80;54.40;;;;;;4976955;28;20961;-66
2022/07/22 14:48:57;;;;;;;6.17;5.77;;;34.90;54.30;;;;;;4977231;28;20513;-66
2022/07/22 14:51:24;;;;;;;7.13;6.57;;;34.90;54.70;;;;;;4977103;28;20482;-66
2022/07/22 14:53:51;;;;;;;7.27;6.67;;;34.90;53.60;;;;;;4977366;28;20457;-66
2022/07/22 14:56:18;;;;;;;6.67;6.30;;;34.80;53.90;;;;;;4977789;28;20454;-66
2022/07/22 14:58:46;;;;;;;6.50;6.10;;;34.80;53.90;;;;;;4977224;28;20458;-66
2022/07/22 15:01:13;;;;;;;6.30;5.90;;;34.70;54.70;;;;;;4977199;28;20513;-66
2022/07/22 15:03:40;;;;;;;6.80;6.30;;;34.80;54.80;;;;;;4977522;28;20459;-66
2022/07/22 15:06:07;;;;;;;7.03;6.50;;;34.70;53.60;;;;;;4977080;28;20465;-66
2022/07/22 15:08:33;;;;;;;7.83;6.70;;;34.70;53.70;;;;;;4977501;28;20961;-67
2022/07/22 15:11:00;;;;;;;6.33;5.93;;;34.70;53.90;;;;;;4976806;28;20486;-68
2022/07/22 15:13:27;;;;;;;7.10;6.60;;;34.40;52.60;;;;;;4976851;28;20481;-67
2022/07/22 15:15:55;;;;;;;6.57;6.07;;;34.40;53.60;;;;;;4990486;28;20470;-68
2022/07/22 15:18:23;;;;;;;6.37;5.97;;;34.50;53.80;;;;;;4982913;28;20455;-67
2022/07/22 15:20:50;;;;;;;6.87;6.37;;;34.60;53.00;;;;;;4977272;28;20478;-67
2022/07/22 15:23:17;;;;;;;5.70;5.40;;;34.70;54.50;;;;;;4976592;28;20468;-67
2022/07/22 15:25:43;;;;;;;6.70;6.20;;;34.50;53.80;;;;;;4976534;28;20492;-67
2022/07/22 15:28:10;;;;;;;6.80;6.40;;;34.50;53.70;;;;;;4976441;28;20465;-67
2022/07/22 15:30:37;;;;;;;6.67;6.00;;;34.60;53.10;;;;;;4976552;28;20536;-67
2022/07/22 15:33:05;;;;;;;6.87;6.37;;;34.60;54.30;;;;;;4976334;28;20454;-68
2022/07/22 15:35:31;;;;;;;6.07;5.50;;;34.60;53.50;;;;;;4976996;28;20458;-67
2022/07/22 15:37:58;;;;;;;6.30;5.80;;;34.60;53.50;;;;;;4976400;28;20466;-67
2022/07/22 15:40:25;;;;;;;6.33;5.93;;;34.70;53.70;;;;;;4975899;28;20938;-66
2022/07/22 15:42:52;;;;;;;14.13;7.07;;;34.60;53.90;;;;;;4976184;28;20451;-66
2022/07/22 15:45:19;;;;;;;6.47;5.97;;;34.70;54.60;;;;;;4976122;28;20489;-67
2022/07/22 15:47:46;;;;;;;6.50;6.10;;;34.70;54.30;;;;;;4976120;28;20450;-67
2022/07/22 15:50:15;;;;;;;6.17;5.77;;;34.70;54.10;;;;;;4975688;28;21012;-67
2022/07/22 15:52:42;;;;;;;6.80;6.30;;;34.70;54.20;;;;;;4976152;28;20458;-66
2022/07/22 15:55:09;;;;;;;6.70;6.30;;;34.60;53.90;;;;;;4975911;28;20818;-66
2022/07/22 16:00:20;;;;;;;5.90;5.60;;;34.70;52.80;;;;;;4975865;28;20414;-66
2022/07/22 16:02:47;;;;;;;6.47;6.07;;;34.60;53.00;;;;;;4975963;28;20439;-66
2022/07/22 16:05:15;;;;;;;7.40;6.80;;;34.50;53.10;;;;;;4975716;28;20450;-67
2022/07/22 16:07:42;;;;;;;6.07;5.47;;;34.40;52.90;;;;;;4975899;28;20476;-67
2022/07/22 16:10:09;;;;;;;9.47;7.03;;;34.30;53.10;;;;;;4975474;28;20457;-67
2022/07/22 16:12:36;;;;;;;6.27;5.77;;;34.30;53.30;;;;;;4976598;28;20999;-67
2022/07/22 16:15:04;;;;;;;5.97;5.57;;;34.40;54.30;;;;;;4975874;28;20462;-67
2022/07/22 16:17:31;;;;;;;9.73;5.80;;;34.40;53.90;;;;;;4975415;28;20460;-68
2022/07/22 16:19:57;;;;;;;6.33;5.93;;;34.40;53.30;;;;;;4976002;28;20465;-68
2022/07/22 16:22:25;;;;;;;6.07;5.67;;;34.40;53.50;;;;;;4976077;28;20474;-68
2022/07/22 16:24:52;;;;;;;6.20;5.73;;;34.40;53.50;;;;;;4976341;28;20458;-68
2022/07/22 16:27:19;;;;;;;6.13;5.73;;;34.40;53.40;;;;;;4975661;28;20458;-68
2022/07/22 16:29:46;;;;;;;6.20;5.77;;;34.30;53.70;;;;;;4975866;28;20454;-68
2022/07/22 16:32:12;;;;;;;7.00;6.43;;;34.20;53.30;;;;;;4975307;28;20486;-69
2022/07/22 16:34:39;;;;;;;6.50;6.10;;;34.20;54.10;;;;;;4975728;28;20457;-68
2022/07/22 16:37:06;;;;;;;8.60;5.93;;;34.20;54.10;;;;;;4975453;28;20469;-69
2022/07/22 16:39:34;;;;;;;6.40;5.90;;;34.20;54.50;;;;;;4975309;28;20454;-68
2022/07/22 16:42:01;;;;;;;6.90;6.40;;;34.10;53.90;;;;;;4975282;28;20475;-68
2022/07/22 16:44:28;;;;;;;6.50;6.13;;;34.20;53.60;;;;;;4975452;28;20458;-68
2022/07/22 16:46:54;;;;;;;8.17;6.10;;;34.20;52.90;;;;;;4974926;28;20459;-68